Flight Track Log - Related Links

Times and Time Zones

All times are in EDT time to prevent confusion due to time zone crossing. See the AAL1862 flight status page for this flight to view local times or setup timezone preferences in your user account.

Time Position Orientation Groundspeed Altitude Reporting Facility
EDT Latitude Longitude Course Direction KTS km/h feet Rate Location/Type
Wed 07:47:17 32.9000 -97.0333 357° North 141 261 1.200  Level Dallas / Fort Worth TRACON
Wed 07:48:11 32.8500 -97.0333 180° South 209 388 3.200 2.750 Climbing Dallas / Fort Worth TRACON
Wed 07:49:00 32.8583 -96.8000 North  Level FlightAware Approximate
Wed 07:49:17 32.7833 -96.9833 148° Southeast 258 478 6.700  Level Dallas / Fort Worth TRACON
Wed 07:50:00 32.9794 -96.8000 North  Level FlightAware Approximate
Wed 07:50:54 32.8281 -96.8942 59° Northeast 334 618 11.100  Level Fort Worth Center
Wed 07:51:00 33.1004 -96.8024 357° North  Level FlightAware Approximate
Wed 07:51:54 32.9136 -96.8889 North 316 586 13.000  Level Fort Worth Center
Wed 07:52:00 33.2213 -96.8110 357° North  Level FlightAware Approximate
Wed 07:52:54 33.0306 -96.8758 North 364 674 16.100  Level Fort Worth Center
Wed 07:53:54 33.1350 -96.8653 North 403 747 19.000 3.350 Climbing Fort Worth Center
Wed 07:54:54 33.2558 -96.8494 North 401 742 22.800 2.950 Climbing Fort Worth Center
Wed 07:55:54 33.3497 -96.8389 North 385 713 24.900 2.050 Climbing Fort Worth Center
Wed 07:56:54 33.4686 -96.8133 10° North 385 713 26.900 1.900 Climbing Fort Worth Center
Wed 07:57:54 33.5561 -96.7578 28° Northeast 390 723 28.700 1.750 Climbing Fort Worth Center
Wed 07:58:54 33.6661 -96.6872 28° Northeast 401 742 30.400 1.550 Climbing Fort Worth Center
Wed 07:59:54 33.7597 -96.6264 28° Northeast 417 772 31.800 1.500 Climbing Fort Worth Center
Wed 08:00:54 33.8700 -96.5556 28° Northeast 413 764 33.400 1.600 Climbing Fort Worth Center
Wed 08:01:54 33.9697 -96.4944 27° Northeast 402 745 35.000 800 Climbing Fort Worth Center
Wed 08:02:54 34.0631 -96.4281 31° Northeast 412 763 35.000  Level Fort Worth Center
Wed 08:03:54 34.1564 -96.3519 34° Northeast 407 753 35.000  Level Fort Worth Center
Wed 08:04:54 34.2539 -96.2753 33° Northeast 412 763 35.000  Level Fort Worth Center
Wed 08:05:54 34.3656 -96.1883 33° Northeast 418 774 35.000  Level Fort Worth Center
Wed 08:06:54 34.4608 -96.1114 34° Northeast 413 764 35.000  Level Fort Worth Center
Wed 08:07:54 34.5581 -96.0292 35° Northeast 418 774 35.000  Level Fort Worth Center
Wed 08:08:54 34.6531 -95.9494 35° Northeast 418 774 35.000  Level Fort Worth Center
Wed 08:09:54 34.7503 -95.8744 32° Northeast 418 774 35.000  Level Fort Worth Center
Wed 08:10:54 34.8453 -95.7944 35° Northeast 418 774 35.000  Level Fort Worth Center
Wed 08:11:54 34.9358 -95.7039 39° Northeast 418 774 35.000  Level Fort Worth Center
Wed 08:12:54 35.0286 -95.6208 36° Northeast 418 774 35.000  Level Fort Worth Center
Wed 08:13:54 35.1006 -95.5483 39° Northeast 418 774 35.000  Level Fort Worth Center
Wed 08:16:09 35.3272 -95.3375 37° Northeast 425 787 35.000  Level Memphis Center
Wed 08:17:09 35.4206 -95.2461 39° Northeast 425 787 35.000  Level Memphis Center
Wed 08:18:09 35.5136 -95.1572 38° Northeast 425 787 35.000  Level Memphis Center
Wed 08:19:09 35.6069 -95.0656 39° Northeast 425 787 35.000  Level Memphis Center
Wed 08:20:09 35.6997 -94.9764 38° Northeast 425 787 35.000  Level Memphis Center
Wed 08:21:09 35.7950 -94.8844 38° Northeast 425 787 35.000  Level Memphis Center
Wed 08:22:09 35.8878 -94.7947 38° Northeast 425 787 35.000  Level Memphis Center
Wed 08:23:09 35.9808 -94.7022 39° Northeast 425 787 35.000  Level Memphis Center
Wed 08:25:24 36.1842 -94.5036 38° Northeast 426 789 35.000  Level Kansas City Center
Wed 08:26:26 36.2778 -94.4119 38° Northeast 428 793 35.000  Level Kansas City Center
Wed 08:27:27 36.3706 -94.3194 39° Northeast 429 795 35.000  Level Kansas City Center
Wed 08:28:28 36.4639 -94.2264 39° Northeast 429 795 35.000  Level Kansas City Center
Wed 08:29:29 36.5622 -94.1331 37° Northeast 438 811 35.000  Level Kansas City Center
Wed 08:30:31 36.6753 -94.0203 39° Northeast 435 806 35.000  Level Kansas City Center
Wed 08:31:32 36.7700 -93.9250 39° Northeast 438 811 35.000  Level Kansas City Center
Wed 08:32:33 36.8647 -93.8308 38° Northeast 437 810 35.000  Level Kansas City Center
Wed 08:33:35 36.9558 -93.7378 39° Northeast 433 801 35.000  Level Kansas City Center
Wed 08:34:36 37.0503 -93.6408 39° Northeast 436 808 35.000  Level Kansas City Center
Wed 08:35:37 37.1458 -93.5447 39° Northeast 439 813 35.000  Level Kansas City Center
Wed 08:36:39 37.2419 -93.4478 39° Northeast 441 816 35.000  Level Kansas City Center
Wed 08:37:40 37.3392 -93.3508 38° Northeast 443 821 35.000  Level Kansas City Center
Wed 08:38:41 37.4322 -93.2469 42° Northeast 445 824 35.000  Level Kansas City Center
Wed 08:39:43 37.5228 -93.1408 43° Northeast 444 822 35.000  Level Kansas City Center
Wed 08:40:44 37.6311 -93.0125 43° Northeast 444 822 35.000  Level Kansas City Center
Wed 08:41:46 37.7231 -92.9053 43° Northeast 445 824 35.000 -98 Level Kansas City Center
Wed 08:42:47 37.8139 -92.7989 43° Northeast 444 822 34.800 -537 Descending Kansas City Center
Wed 08:43:49 37.9025 -92.6942 43° Northeast 444 822 33.900 -878 Descending Kansas City Center
Wed 08:44:50 37.9906 -92.5881 44° Northeast 441 816 33.000 -439 Descending Kansas City Center
Wed 08:45:52 38.0794 -92.4853 42° Northeast 435 806 33.000  Level Kansas City Center
Wed 08:46:53 38.1678 -92.3794 43° Northeast 438 811 33.000 -390 Level Kansas City Center
Wed 08:47:55 38.2661 -92.2614 43° Northeast 438 811 32.200 -2.419 Descending Kansas City Center
Wed 08:48:57 38.3564 -92.1508 44° Northeast 444 822 28.000 -3.707 Descending Kansas City Center
Wed 08:49:58 38.4500 -92.0378 43° Northeast 457 847 24.600 -3.122 Descending Kansas City Center
Wed 08:51:00 38.4872 -91.8908 72° East 434 803 21.600 -2.878 Descending Kansas City Center
Wed 08:52:01 38.5161 -91.7444 76° East 424 785 18.700 -2.829 Descending Kansas City Center
Wed 08:53:03 38.5492 -91.6047 73° East 412 763 15.800 -2.439 Descending Kansas City Center
Wed 08:54:04 38.5794 -91.4689 74° East 400 740 13.700 -1.756 Descending Kansas City Center
Wed 08:55:06 38.6131 -91.3322 72° East 389 721 12.200 -1.306 Descending Kansas City Center
Wed 08:56:08 38.6406 -91.2058 74° East 374 692 11.000 -878 Descending Kansas City Center
Wed 08:57:09 38.6750 -91.0589 73° East 362 671 10.400 -829 Descending Kansas City Center
Wed 08:58:11 38.7019 -90.9556 71° East 312 578 9.300 -1.210 Descending Kansas City Center
Wed 08:59:13 38.7622 -90.8822 43° Northeast 298 552 7.900 -1.122 Descending Kansas City Center
Wed 09:00:14 38.8178 -90.8089 46° Northeast 288 533 7.000 -1.220 Descending Kansas City Center
Wed 09:01:16 38.8411 -90.7178 72° East 277 513 5.400 -1.500 Descending Kansas City Center
Wed 09:02:18 38.8447 -90.6189 87° East 276 512 3.900 -1.452 Descending Kansas City Center

Login

Don't have an account? Register now (free) for customized features, flight alerts, and more!